This is the latest recevied weather packets stored in our database for station/object SP3PDK-1. If no packets are shown the sender has not sent any weather packets the latest 10 day(s).
| Time | Temp. | Humidity | Pressure | Rain* | Wind** | Luminosity | Snow |
|---|---|---|---|---|---|---|---|
| 1777944258 | 16.67° C | 73% | 1010 hPa | - | - | - | - |
| 1777943658 | 17.22° C | 71% | 1009.8 hPa | - | - | - | - |
| 1777943054 | 17.22° C | 71% | 1009.9 hPa | - | - | - | - |
| 1777941853 | 18.33° C | 69% | 1010 hPa | - | - | - | - |
| 1777941258 | 18.33° C | 68% | 1010 hPa | - | - | - | - |
| 1777940657 | 17.78° C | 70% | 1010.1 hPa | - | - | - | - |
| 1777940053 | 17.22° C | 73% | 1010.3 hPa | - | - | - | - |
| 1777939456 | 17.22° C | 72% | 1010.4 hPa | - | - | - | - |
| 1777938856 | 17.78° C | 70% | 1010.4 hPa | - | - | - | - |
| 1777937658 | 18.33° C | 67% | 1010.4 hPa | - | - | - | - |
| 1777937054 | 18.33° C | 66% | 1010.4 hPa | - | - | - | - |
| 1777936454 | 18.89° C | 64% | 1010.4 hPa | - | - | - | - |
| 1777935855 | 18.89° C | 63% | 1010.4 hPa | - | - | - | - |
| 1777934658 | 19.44° C | 60% | 1010.5 hPa | - | - | - | - |
| 1777934057 | 19.44° C | 61% | 1010.6 hPa | - | - | - | - |
| 1777933459 | 20° C | 58% | 1010.5 hPa | - | - | - | - |
| 1777932853 | 20.56° C | 57% | 1010.5 hPa | - | - | - | - |
| 1777932253 | 20° C | 57% | 1010.6 hPa | - | - | - | - |
| 1777931657 | 20° C | 59% | 1010.7 hPa | - | - | - | - |
| 1777931054 | 20.56° C | 55% | 1010.8 hPa | - | - | - | - |
| 1777930455 | 21.11° C | 52% | 1010.8 hPa | - | - | - | - |
| 1777929856 | 21.67° C | 51% | 1010.8 hPa | - | - | - | - |
| 1777929258 | 21.67° C | 51% | 1010.7 hPa | - | - | - | - |
| 1777928654 | 21.67° C | 49% | 1010.7 hPa | - | - | - | - |
| 1777928057 | 21.67° C | 49% | 1010.7 hPa | - | - | - | - |
* Rain since midnight (hover to see other rain measurements)
** Current wind speed in m/s (hover to see current wind gust speed)